createdAt,value
2023-03-30T00:00:35.224Z,11.02
2023-03-30T00:05:38.160Z,9.38
2023-03-30T00:10:41.044Z,4.78
2023-03-30T00:15:42.642Z,4.78
2023-03-30T00:20:45.222Z,8.77
2023-03-30T00:25:47.206Z,7.38
2023-03-30T00:30:49.789Z,4.85
2023-03-30T00:35:53.354Z,7.85
2023-03-30T00:40:58.169Z,4.10
2023-03-30T00:46:00.097Z,4.90
2023-03-30T00:51:09.860Z,5.68
2023-03-30T00:56:15.055Z,10.88
2023-03-30T01:01:25.896Z,6.78
2023-03-30T01:06:30.224Z,3.90
2023-03-30T01:11:34.276Z,6.78
2023-03-30T01:16:43.167Z,8.02
2023-03-30T01:22:17.936Z,9.52
2023-03-30T01:27:40.281Z,6.50
2023-03-30T01:33:13.386Z,5.22
2023-03-30T01:38:39.215Z,7.53
2023-03-30T01:43:52.778Z,9.52
2023-03-30T01:49:07.553Z,9.13
2023-03-30T01:54:39.844Z,6.78
2023-03-30T02:00:00.189Z,7.28
2023-03-30T02:05:06.298Z,7.72
2023-03-30T02:10:10.744Z,10.30
2023-03-30T02:15:16.915Z,13.57
2023-03-30T02:20:18.952Z,5.60
2023-03-30T02:25:21.123Z,9.02
2023-03-30T02:30:22.855Z,6.38
2023-03-30T02:35:55.053Z,10.25
2023-03-30T02:41:07.179Z,9.73
2023-03-30T02:46:40.119Z,9.30
2023-03-30T02:52:05.197Z,7.53
2023-03-30T02:57:18.198Z,8.07
2023-03-30T03:02:28.456Z,10.07
2023-03-30T03:07:40.790Z,10.23
2023-03-30T03:12:45.203Z,9.23
2023-03-30T03:17:48.052Z,9.43
2023-03-30T03:22:56.465Z,9.73
2023-03-30T03:27:58.452Z,11.30
2023-03-30T03:33:02.091Z,9.40
2023-03-30T03:38:07.769Z,5.85
2023-03-30T03:43:10.162Z,8.85
2023-03-30T03:48:12.551Z,9.98
2023-03-30T03:53:18.620Z,8.18
2023-03-30T03:58:20.867Z,3.53
2023-03-30T04:03:22.644Z,7.70
2023-03-30T04:08:25.833Z,9.05
2023-03-30T04:13:28.453Z,10.57
2023-03-30T04:18:48.502Z,10.68
2023-03-30T04:24:12.207Z,13.02
2023-03-30T04:29:32.778Z,12.95
2023-03-30T04:40:00.092Z,18.50
2023-03-30T04:45:06.618Z,16.75
2023-03-30T04:50:26.245Z,15.48
2023-03-30T04:55:59.929Z,11.70
2023-03-30T05:01:22.586Z,19.80
2023-03-30T05:06:39.264Z,15.13
2023-03-30T05:11:57.044Z,14.40
2023-03-30T05:17:11.759Z,18.27
2023-03-30T05:22:50.853Z,20.17
2023-03-30T05:28:12.321Z,17.08
2023-03-30T05:33:23.052Z,18.45
2023-03-30T05:38:44.849Z,20.70
2023-03-30T05:44:09.414Z,19.20
2023-03-30T05:49:46.212Z,24.00
2023-03-30T05:55:02.067Z,21.77
2023-03-30T06:00:33.439Z,25.05
2023-03-30T06:05:43.825Z,22.55
2023-03-30T06:10:56.148Z,16.48
2023-03-30T06:16:02.434Z,21.08
2023-03-30T06:21:09.176Z,23.25
2023-03-30T06:26:25.951Z,22.70
2023-03-30T06:31:28.977Z,26.27
2023-03-30T06:36:50.646Z,27.65
2023-03-30T06:41:53.212Z,24.95
2023-03-30T06:47:08.937Z,21.90
2023-03-30T06:52:11.527Z,19.58
2023-03-30T06:57:15.644Z,24.17
2023-03-30T07:02:17.745Z,23.67
2023-03-30T07:07:46.463Z,18.77
2023-03-30T07:12:48.608Z,26.50
2023-03-30T07:17:50.853Z,23.20
2023-03-30T07:22:52.704Z,22.83
2023-03-30T07:27:54.562Z,27.35
2023-03-30T07:32:58.376Z,31.42
2023-03-30T07:38:03.680Z,24.38
2023-03-30T07:43:09.932Z,25.43
2023-03-30T07:48:12.324Z,32.90
2023-03-30T07:53:14.066Z,22.52
2023-03-30T07:58:17.203Z,27.35
2023-03-30T08:03:19.721Z,24.88
2023-03-30T08:08:21.769Z,27.63
2023-03-30T08:13:23.962Z,28.92
2023-03-30T08:18:28.991Z,24.23
2023-03-30T08:23:30.792Z,31.85
2023-03-30T08:28:32.522Z,28.48
2023-03-30T08:33:35.094Z,32.35
2023-03-30T08:38:36.838Z,30.52
2023-03-30T08:44:00.524Z,32.45
2023-03-30T08:49:08.845Z,25.20
2023-03-30T08:54:16.723Z,36.05
2023-03-30T08:59:29.659Z,36.08
2023-03-30T09:04:40.601Z,32.10
2023-03-30T09:09:47.913Z,33.45
2023-03-30T09:15:03.219Z,26.38
2023-03-30T09:20:15.295Z,31.08
2023-03-30T09:25:28.218Z,37.45
2023-03-30T09:30:41.665Z,31.63
2023-03-30T09:35:59.267Z,29.30
2023-03-30T09:41:17.730Z,33.15
2023-03-30T09:46:19.852Z,34.65
2023-03-30T09:51:31.191Z,30.23
2023-03-30T09:56:45.147Z,32.58
2023-03-30T10:01:47.103Z,27.88
2023-03-30T10:06:50.806Z,36.97
2023-03-30T10:11:55.149Z,28.65
2023-03-30T10:16:58.077Z,24.80
2023-03-30T10:22:04.186Z,28.42
2023-03-30T10:27:13.216Z,43.72
2023-03-30T10:32:19.045Z,27.87
2023-03-30T10:37:32.605Z,32.13
2023-03-30T10:42:34.379Z,29.67
2023-03-30T10:48:00.380Z,23.70
2023-03-30T10:53:19.954Z,25.98
2023-03-30T10:58:27.505Z,33.50
2023-03-30T11:03:32.674Z,24.67
2023-03-30T11:08:41.615Z,28.35
2023-03-30T11:13:49.797Z,24.20
2023-03-30T11:18:57.219Z,32.22
2023-03-30T11:24:07.023Z,29.88
2023-03-30T11:29:19.693Z,33.60
2023-03-30T11:34:35.731Z,29.05
2023-03-30T11:39:41.414Z,24.33
2023-03-30T11:44:43.599Z,31.45
2023-03-30T11:50:04.264Z,36.42
2023-03-30T11:55:26.558Z,35.35
2023-03-30T12:00:40.638Z,28.05
2023-03-30T12:05:56.281Z,37.78
2023-03-30T12:11:18.527Z,22.20
2023-03-30T12:16:34.261Z,29.40
2023-03-30T12:22:15.425Z,28.67
2023-03-30T12:27:17.156Z,39.75
2023-03-30T12:32:22.697Z,36.85
2023-03-30T12:37:35.083Z,31.70
2023-03-30T12:42:47.023Z,25.67
2023-03-30T12:47:53.839Z,41.47
2023-03-30T12:53:52.361Z,38.83
2023-03-30T12:59:18.858Z,47.22
2023-03-30T13:04:25.269Z,35.08
2023-03-30T13:09:27.330Z,40.33
2023-03-30T13:14:35.278Z,37.10
2023-03-30T13:19:41.025Z,35.38
2023-03-30T13:24:42.933Z,38.03
2023-03-30T13:29:53.865Z,36.70
2023-03-30T13:35:28.438Z,36.33
2023-03-30T13:40:46.396Z,28.83
2023-03-30T13:46:13.746Z,32.53
2023-03-30T13:51:23.092Z,30.88
2023-03-30T13:56:27.441Z,37.72
2023-03-30T14:01:29.176Z,28.00
2023-03-30T14:06:34.381Z,32.53
2023-03-30T14:11:40.072Z,29.17
2023-03-30T14:16:41.937Z,29.90
2023-03-30T14:21:46.381Z,24.08
2023-03-30T14:26:49.086Z,32.95
2023-03-30T14:32:04.419Z,32.88
2023-03-30T14:37:11.971Z,28.55
2023-03-30T14:42:36.498Z,25.25
2023-03-30T14:47:38.253Z,35.65
2023-03-30T14:52:43.163Z,31.20
2023-03-30T14:57:45.381Z,38.17
2023-03-30T15:02:51.415Z,26.67
2023-03-30T15:07:53.449Z,30.23
2023-03-30T15:12:57.593Z,24.60
2023-03-30T15:18:00.925Z,31.38
2023-03-30T15:23:02.703Z,30.45
2023-03-30T15:28:09.429Z,38.33
2023-03-30T15:33:39.926Z,33.75
2023-03-30T15:38:52.561Z,27.55
2023-03-30T15:44:09.863Z,31.23
2023-03-30T15:49:16.131Z,39.55
2023-03-30T15:54:38.789Z,36.60
2023-03-30T15:59:45.329Z,30.63
2023-03-30T16:04:49.414Z,29.08
2023-03-30T16:09:52.079Z,30.52
2023-03-30T16:14:54.347Z,24.48
2023-03-30T16:19:55.944Z,28.73
2023-03-30T16:24:57.603Z,28.13
2023-03-30T16:29:59.289Z,31.90
2023-03-30T16:35:01.007Z,24.75
2023-03-30T16:40:10.359Z,27.42
2023-03-30T16:45:12.088Z,29.30
2023-03-30T16:50:24.116Z,30.90
2023-03-30T16:55:25.915Z,24.15
2023-03-30T17:00:33.264Z,29.92
2023-03-30T17:05:35.449Z,28.83
2023-03-30T17:10:40.565Z,29.83
2023-03-30T17:15:42.725Z,26.88
2023-03-30T17:20:48.732Z,25.60
2023-03-30T17:25:51.066Z,25.90
2023-03-30T17:30:55.639Z,28.48
2023-03-30T17:36:00.510Z,18.70
2023-03-30T17:41:02.562Z,26.42
2023-03-30T17:46:04.938Z,22.88
2023-03-30T17:51:07.359Z,27.58
2023-03-30T17:56:13.254Z,32.47
2023-03-30T18:01:16.781Z,25.95
2023-03-30T18:06:18.687Z,29.25
2023-03-30T18:11:21.072Z,32.35
2023-03-30T18:16:24.376Z,17.50
2023-03-30T18:21:26.050Z,29.58
2023-03-30T18:26:27.822Z,30.48
2023-03-30T18:31:29.695Z,26.70
2023-03-30T18:36:31.373Z,30.13
2023-03-30T18:41:33.047Z,28.05
2023-03-30T18:46:34.856Z,26.75
2023-03-30T18:51:36.519Z,25.70
2023-03-30T18:56:38.171Z,27.55
2023-03-30T19:01:40.257Z,25.63
2023-03-30T19:06:44.427Z,33.35
2023-03-30T19:11:46.009Z,33.90
2023-03-30T19:16:47.844Z,28.88
2023-03-30T19:21:50.745Z,27.63
2023-03-30T19:26:52.451Z,21.17
2023-03-30T19:31:55.102Z,32.30
2023-03-30T19:36:56.724Z,27.02
2023-03-30T19:41:58.448Z,31.25
2023-03-30T19:47:00.118Z,27.48
2023-03-30T19:52:02.005Z,27.48
2023-03-30T19:57:03.938Z,27.45
2023-03-30T20:02:05.993Z,32.47
2023-03-30T20:07:07.783Z,28.50
2023-03-30T20:12:10.167Z,26.95
2023-03-30T20:17:11.803Z,25.50
2023-03-30T20:22:13.522Z,29.40
2023-03-30T20:27:15.312Z,26.65
2023-03-30T20:32:17.449Z,24.73
2023-03-30T20:37:19.366Z,29.35
2023-03-30T20:42:26.258Z,27.95
2023-03-30T20:47:30.177Z,29.92
2023-03-30T20:52:32.435Z,28.13
2023-03-30T20:57:34.000Z,29.27
2023-03-30T21:02:35.885Z,19.77
2023-03-30T21:07:38.571Z,32.20
2023-03-30T21:12:40.250Z,30.00
2023-03-30T21:17:41.908Z,26.15
2023-03-30T21:22:43.627Z,31.55
2023-03-30T21:27:45.332Z,27.73
2023-03-30T21:32:46.980Z,29.30
2023-03-30T21:37:48.744Z,24.25
2023-03-30T21:42:50.453Z,24.73
2023-03-30T21:47:52.041Z,32.88
2023-03-30T21:52:58.164Z,26.52
2023-03-30T21:57:59.765Z,26.90
2023-03-30T22:03:01.542Z,24.17
2023-03-30T22:08:03.293Z,27.05
2023-03-30T22:13:05.689Z,20.75
2023-03-30T22:18:07.380Z,20.80
2023-03-30T22:23:09.009Z,24.75
2023-03-30T22:28:12.016Z,22.55
2023-03-30T22:33:13.705Z,17.30
2023-03-30T22:38:16.591Z,21.02
2023-03-30T22:43:18.348Z,24.10
2023-03-30T22:48:19.945Z,19.83
2023-03-30T22:53:21.546Z,19.70
2023-03-30T22:58:23.500Z,22.73
2023-03-30T23:03:25.234Z,18.52
2023-03-30T23:08:28.147Z,18.02
2023-03-30T23:13:30.986Z,25.52
2023-03-30T23:18:33.393Z,23.48
2023-03-30T23:23:36.371Z,20.92
2023-03-30T23:28:41.936Z,17.77
2023-03-30T23:33:43.883Z,17.77
2023-03-30T23:38:46.556Z,19.10
2023-03-30T23:43:48.896Z,18.75
2023-03-30T23:48:51.357Z,16.67
2023-03-30T23:53:54.723Z,18.83
2023-03-30T23:58:56.870Z,17.05
